createdAt,value
2023-05-10T00:01:00.956Z,1.65
2023-05-10T00:03:02.867Z,1.48
2023-05-10T00:05:05.078Z,1.20
2023-05-10T00:07:06.823Z,1.48
2023-05-10T00:09:08.716Z,1.90
2023-05-10T00:11:10.533Z,1.77
2023-05-10T00:13:12.259Z,1.52
2023-05-10T00:15:14.222Z,1.80
2023-05-10T00:17:15.949Z,1.77
2023-05-10T00:19:17.700Z,1.40
2023-05-10T00:21:19.481Z,1.70
2023-05-10T00:23:21.188Z,1.77
2023-05-10T00:25:23.374Z,1.65
2023-05-10T00:27:25.383Z,1.42
2023-05-10T00:29:29.138Z,1.45
2023-05-10T00:31:33.692Z,1.35
2023-05-10T00:33:35.482Z,1.80
2023-05-10T00:35:37.264Z,1.55
2023-05-10T00:37:39.189Z,1.40
2023-05-10T00:39:40.912Z,1.75
2023-05-10T00:41:42.603Z,1.77
2023-05-10T00:43:44.448Z,1.75
2023-05-10T00:45:46.149Z,1.40
2023-05-10T00:47:47.993Z,1.80
2023-05-10T00:49:49.799Z,1.60
2023-05-10T00:51:51.632Z,1.92
2023-05-10T00:53:53.443Z,1.83
2023-05-10T00:55:55.181Z,1.60
2023-05-10T00:57:57.175Z,1.83
2023-05-10T00:59:59.200Z,1.58
2023-05-10T01:02:01.014Z,1.80
2023-05-10T01:04:04.166Z,1.83
2023-05-10T01:06:06.542Z,1.77
2023-05-10T01:08:09.854Z,1.60
2023-05-10T01:10:12.077Z,2.40
2023-05-10T01:12:14.052Z,2.17
2023-05-10T01:14:16.302Z,3.40
2023-05-10T01:16:18.278Z,2.40
2023-05-10T01:18:21.775Z,2.70
2023-05-10T01:20:24.527Z,2.30
2023-05-10T01:22:32.279Z,2.45
2023-05-10T01:25:11.085Z,2.67
2023-05-10T01:27:38.812Z,2.25
2023-05-10T01:30:14.736Z,2.05
2023-05-10T01:32:35.968Z,2.30
2023-05-10T01:34:46.457Z,2.38
2023-05-10T01:37:12.346Z,2.53
2023-05-10T01:39:26.180Z,2.70
2023-05-10T01:41:49.209Z,2.55
2023-05-10T01:43:58.966Z,2.17
2023-05-10T01:46:11.448Z,2.33
2023-05-10T01:48:15.404Z,2.13
2023-05-10T01:50:20.633Z,2.20
2023-05-10T01:52:28.276Z,2.63
2023-05-10T01:54:30.231Z,2.50
2023-05-10T01:56:33.608Z,2.83
2023-05-10T01:58:36.459Z,2.90
2023-05-10T02:00:41.729Z,2.63
2023-05-10T02:02:46.838Z,2.30
2023-05-10T02:04:50.988Z,2.55
2023-05-10T02:06:54.336Z,2.40
2023-05-10T02:08:56.338Z,3.00
2023-05-10T02:10:58.692Z,2.22
2023-05-10T02:13:01.295Z,2.08
2023-05-10T02:15:04.291Z,1.98
2023-05-10T02:17:07.349Z,2.63
2023-05-10T02:19:10.222Z,2.00
2023-05-10T02:21:12.220Z,2.25
2023-05-10T02:23:14.977Z,2.50
2023-05-10T02:25:16.853Z,2.92
2023-05-10T02:27:19.023Z,2.90
2023-05-10T02:29:21.153Z,2.00
2023-05-10T02:31:23.606Z,2.30
2023-05-10T02:33:25.685Z,2.67
2023-05-10T02:35:28.369Z,2.53
2023-05-10T02:37:30.274Z,2.50
2023-05-10T02:39:33.196Z,2.63
2023-05-10T02:41:35.042Z,2.72
2023-05-10T02:43:37.446Z,2.75
2023-05-10T02:45:40.095Z,2.70
2023-05-10T02:47:42.152Z,2.70
2023-05-10T02:49:44.311Z,3.42
2023-05-10T02:51:50.496Z,3.15
2023-05-10T02:54:07.507Z,3.90
2023-05-10T02:56:16.972Z,2.83
2023-05-10T02:58:20.497Z,3.13
2023-05-10T03:00:22.276Z,3.78
2023-05-10T03:02:24.227Z,2.80
2023-05-10T03:04:33.096Z,2.97
2023-05-10T03:06:34.818Z,3.72
2023-05-10T03:08:36.897Z,3.03
2023-05-10T03:10:55.899Z,3.38
2023-05-10T03:13:07.587Z,3.30
2023-05-10T03:15:37.967Z,2.95
2023-05-10T03:18:13.631Z,3.20
2023-05-10T03:20:27.954Z,2.72
2023-05-10T03:22:36.123Z,3.17
2023-05-10T03:24:38.245Z,3.67
2023-05-10T03:26:40.326Z,3.30
2023-05-10T03:28:42.668Z,2.97
2023-05-10T03:30:45.050Z,3.80
2023-05-10T03:32:47.044Z,3.67
2023-05-10T03:34:49.231Z,3.50
2023-05-10T03:36:51.026Z,2.38
2023-05-10T03:38:52.800Z,3.25
2023-05-10T03:40:54.613Z,3.67
2023-05-10T03:42:56.697Z,4.30
2023-05-10T03:44:58.637Z,4.07
2023-05-10T03:47:00.663Z,4.35
2023-05-10T03:49:02.510Z,4.30
2023-05-10T03:51:04.414Z,3.83
2023-05-10T03:53:06.478Z,4.22
2023-05-10T03:55:08.847Z,5.15
2023-05-10T03:57:11.838Z,3.55
2023-05-10T03:59:14.126Z,4.22
2023-05-10T04:01:15.924Z,3.72
2023-05-10T04:03:18.293Z,3.88
2023-05-10T04:05:20.124Z,4.55
2023-05-10T04:07:21.982Z,4.38
2023-05-10T04:09:28.126Z,3.97
2023-05-10T04:11:30.833Z,4.28
2023-05-10T04:13:32.866Z,3.95
2023-05-10T04:15:34.937Z,4.53
2023-05-10T04:17:37.552Z,4.43
2023-05-10T04:19:40.769Z,3.13
2023-05-10T04:21:42.654Z,3.60
2023-05-10T04:23:44.825Z,4.00
2023-05-10T04:25:46.843Z,4.18
2023-05-10T04:27:48.645Z,3.60
2023-05-10T04:29:50.596Z,3.75
2023-05-10T04:31:52.346Z,2.95
2023-05-10T04:33:54.310Z,3.42
2023-05-10T04:35:56.173Z,3.53
2023-05-10T04:37:57.856Z,2.63
2023-05-10T04:40:01.175Z,2.88
2023-05-10T04:42:04.466Z,2.50
2023-05-10T04:44:06.209Z,2.15
2023-05-10T04:46:10.825Z,2.13
2023-05-10T04:48:12.767Z,1.60
2023-05-10T04:50:14.715Z,1.90
2023-05-10T04:52:18.460Z,1.80
2023-05-10T04:54:20.309Z,1.80
2023-05-10T04:56:23.027Z,1.90
2023-05-10T04:58:25.016Z,2.08
2023-05-10T05:00:26.895Z,2.05
2023-05-10T05:02:28.804Z,2.15
2023-05-10T05:04:31.499Z,1.50
2023-05-10T05:06:33.394Z,2.00
2023-05-10T05:08:40.959Z,1.65
2023-05-10T05:10:42.827Z,1.88
2023-05-10T05:12:44.968Z,1.83
2023-05-10T05:14:47.455Z,1.50
2023-05-10T05:16:49.404Z,1.77
2023-05-10T05:18:51.470Z,1.85
2023-05-10T05:20:53.887Z,2.20
2023-05-10T05:22:56.415Z,2.50
2023-05-10T05:24:59.601Z,2.83
2023-05-10T05:27:02.890Z,2.38
2023-05-10T05:29:05.407Z,2.30
2023-05-10T05:31:11.231Z,2.72
2023-05-10T05:33:15.024Z,2.65
2023-05-10T05:35:21.490Z,2.20
2023-05-10T05:37:24.192Z,2.47
2023-05-10T05:39:26.121Z,2.40
2023-05-10T05:41:28.054Z,3.72
2023-05-10T05:43:30.323Z,2.03
2023-05-10T05:45:32.257Z,2.28
2023-05-10T05:47:34.317Z,2.33
2023-05-10T05:49:38.603Z,2.47
2023-05-10T05:51:40.834Z,2.30
2023-05-10T05:53:43.554Z,2.25
2023-05-10T05:55:56.015Z,2.50
2023-05-10T05:57:58.720Z,1.85
2023-05-10T06:00:01.057Z,2.42
2023-05-10T06:02:03.258Z,2.35
2023-05-10T06:04:09.908Z,3.13
2023-05-10T06:06:11.794Z,2.47
2023-05-10T06:08:14.222Z,2.72
2023-05-10T06:10:16.337Z,2.28
2023-05-10T06:12:18.144Z,2.10
2023-05-10T06:14:22.055Z,1.90
2023-05-10T06:16:23.829Z,2.40
2023-05-10T06:18:26.492Z,1.50
2023-05-10T06:20:28.716Z,2.22
2023-05-10T06:22:31.155Z,1.40
2023-05-10T06:24:33.041Z,1.80
2023-05-10T06:26:35.100Z,1.50
2023-05-10T06:28:39.708Z,1.80
2023-05-10T06:30:41.733Z,1.27
2023-05-10T06:32:45.845Z,1.88
2023-05-10T06:34:48.491Z,1.42
2023-05-10T06:36:51.560Z,1.23
2023-05-10T06:38:53.720Z,1.08
2023-05-10T06:40:55.874Z,1.15
2023-05-10T06:42:58.327Z,1.35
2023-05-10T06:45:03.766Z,1.02
2023-05-10T06:47:05.753Z,1.20
2023-05-10T06:49:07.933Z,0.85
2023-05-10T06:51:09.957Z,1.30
2023-05-10T06:53:13.154Z,1.10
2023-05-10T06:55:15.205Z,1.10
2023-05-10T06:57:30.670Z,1.52
2023-05-10T06:59:33.890Z,1.27
2023-05-10T07:01:36.086Z,1.20
2023-05-10T07:03:38.113Z,1.20
2023-05-10T07:05:40.084Z,1.50
2023-05-10T07:07:42.048Z,2.00
2023-05-10T07:09:43.940Z,1.52
2023-05-10T07:11:45.711Z,1.30
2023-05-10T07:13:47.638Z,1.55
2023-05-10T07:15:49.363Z,1.77
2023-05-10T07:17:51.233Z,1.20
2023-05-10T07:19:53.103Z,1.80
2023-05-10T07:21:55.026Z,1.15
2023-05-10T07:23:56.795Z,1.70
2023-05-10T07:25:58.756Z,2.65
2023-05-10T07:28:00.617Z,1.45
2023-05-10T07:30:02.620Z,1.40
2023-05-10T07:32:04.483Z,1.50
2023-05-10T07:34:06.543Z,1.70
2023-05-10T07:36:08.562Z,1.27
2023-05-10T07:38:12.267Z,1.20
2023-05-10T07:40:14.224Z,1.58
2023-05-10T07:42:16.019Z,1.30
2023-05-10T07:44:20.255Z,1.33
2023-05-10T07:46:22.253Z,1.00
2023-05-10T07:48:24.306Z,1.42
2023-05-10T07:50:26.274Z,1.30
2023-05-10T07:52:28.092Z,1.00
2023-05-10T07:54:29.839Z,0.90
2023-05-10T07:56:32.860Z,0.70
2023-05-10T07:58:34.521Z,1.08
2023-05-10T08:00:36.375Z,0.70
2023-05-10T08:02:38.632Z,1.00
2023-05-10T08:04:40.778Z,1.02
2023-05-10T08:06:42.649Z,0.90
2023-05-10T08:08:44.793Z,1.23
2023-05-10T08:10:51.039Z,0.75
2023-05-10T08:12:52.740Z,1.10
2023-05-10T08:14:54.637Z,0.80
2023-05-10T08:16:56.674Z,1.00
2023-05-10T08:18:58.522Z,0.77
2023-05-10T08:21:00.207Z,1.00
2023-05-10T08:23:02.026Z,1.30
2023-05-10T08:25:03.808Z,0.90
2023-05-10T08:27:09.397Z,0.70
2023-05-10T08:29:11.191Z,0.85
2023-05-10T08:31:13.295Z,0.73
2023-05-10T08:33:15.234Z,0.90
2023-05-10T08:35:17.414Z,1.35
2023-05-10T08:37:19.269Z,1.00
2023-05-10T08:39:29.754Z,1.05
2023-05-10T08:41:34.742Z,1.00
2023-05-10T08:43:37.187Z,0.98
2023-05-10T08:45:40.747Z,1.02
2023-05-10T08:47:42.516Z,0.90
2023-05-10T08:49:45.055Z,1.35
2023-05-10T08:51:52.196Z,1.30
2023-05-10T08:53:54.003Z,1.30
2023-05-10T08:55:56.674Z,1.02
2023-05-10T08:57:58.416Z,1.27
2023-05-10T09:00:02.204Z,0.90
2023-05-10T09:02:05.612Z,0.80
2023-05-10T09:04:07.534Z,0.90
2023-05-10T09:06:09.504Z,0.90
2023-05-10T09:08:13.046Z,1.25
2023-05-10T09:10:15.022Z,1.13
2023-05-10T09:12:17.402Z,0.95
2023-05-10T09:14:19.849Z,0.88
2023-05-10T09:16:22.576Z,1.02
2023-05-10T09:18:25.984Z,1.00
2023-05-10T09:20:32.326Z,1.00
2023-05-10T09:22:37.246Z,0.80
2023-05-10T09:24:43.485Z,0.80
2023-05-10T09:26:52.425Z,0.95
2023-05-10T09:28:56.572Z,0.85
2023-05-10T09:31:12.599Z,0.65
2023-05-10T09:33:14.388Z,0.77
2023-05-10T09:35:21.073Z,0.50
2023-05-10T09:37:30.836Z,0.70
2023-05-10T09:39:34.264Z,0.82
2023-05-10T09:41:35.938Z,0.88
2023-05-10T09:43:41.688Z,1.00
2023-05-10T09:45:43.461Z,0.90
2023-05-10T09:47:45.901Z,0.60
2023-05-10T09:49:52.363Z,0.60
2023-05-10T09:52:08.562Z,0.70
2023-05-10T09:54:14.802Z,0.73
2023-05-10T09:56:34.031Z,1.60
2023-05-10T09:58:39.185Z,0.93
2023-05-10T10:00:42.987Z,0.50
2023-05-10T10:02:47.416Z,0.60
2023-05-10T10:04:51.212Z,0.80
2023-05-10T10:07:02.152Z,0.60
2023-05-10T10:09:05.906Z,0.90
2023-05-10T10:11:08.517Z,0.68
2023-05-10T10:13:10.370Z,0.60
2023-05-10T10:15:12.501Z,0.70
2023-05-10T10:17:15.122Z,1.75
2023-05-10T10:19:16.846Z,0.85
2023-05-10T10:21:18.894Z,0.80
2023-05-10T10:23:27.539Z,0.82
2023-05-10T10:25:29.372Z,1.15
2023-05-10T10:27:37.691Z,0.75
2023-05-10T10:29:54.510Z,0.50
2023-05-10T10:32:08.734Z,0.57
2023-05-10T10:34:15.255Z,0.70
2023-05-10T10:36:17.322Z,0.63
2023-05-10T10:38:19.081Z,0.65
2023-05-10T10:40:31.927Z,0.98
2023-05-10T10:42:48.815Z,0.55
2023-05-10T10:44:51.536Z,0.70
2023-05-10T10:47:26.136Z,0.77
2023-05-10T10:49:29.055Z,0.70
2023-05-10T10:51:32.739Z,0.80
2023-05-10T10:53:36.695Z,0.98
2023-05-10T10:55:47.663Z,1.25
2023-05-10T10:57:54.590Z,0.63
2023-05-10T11:00:25.131Z,1.10
2023-05-10T11:02:58.262Z,0.90
2023-05-10T11:05:00.956Z,0.93
2023-05-10T11:07:18.837Z,0.73
2023-05-10T11:09:22.204Z,0.77
2023-05-10T11:11:24.563Z,0.80
2023-05-10T11:13:41.274Z,0.80
2023-05-10T11:15:51.354Z,0.70
2023-05-10T11:17:54.342Z,0.80
2023-05-10T11:20:26.280Z,0.68
2023-05-10T11:22:38.036Z,1.25
2023-05-10T11:24:57.879Z,0.60
2023-05-10T11:26:59.899Z,0.77
2023-05-10T11:29:03.286Z,1.92
2023-05-10T11:31:08.464Z,0.73
2023-05-10T11:33:11.362Z,0.60
2023-05-10T11:35:18.492Z,0.90
2023-05-10T11:37:20.865Z,0.55
2023-05-10T11:39:28.765Z,1.27
2023-05-10T11:41:31.564Z,0.30
2023-05-10T11:43:33.539Z,0.70
2023-05-10T11:45:36.199Z,0.60
2023-05-10T11:47:38.232Z,0.68
2023-05-10T11:49:40.057Z,0.70
2023-05-10T11:51:43.368Z,0.80
2023-05-10T11:53:45.186Z,0.63
2023-05-10T11:55:46.929Z,1.30
2023-05-10T11:57:49.142Z,0.60
2023-05-10T12:00:13.102Z,0.60
2023-05-10T12:02:16.050Z,0.50
2023-05-10T12:04:18.223Z,0.50
2023-05-10T12:06:21.273Z,0.60
2023-05-10T12:08:28.221Z,0.30
2023-05-10T12:10:30.007Z,0.50
2023-05-10T12:12:51.155Z,0.50
2023-05-10T12:14:52.871Z,0.30
2023-05-10T12:16:54.652Z,0.57
2023-05-10T12:19:01.819Z,0.55
2023-05-10T12:21:05.530Z,0.40
2023-05-10T12:23:10.123Z,0.45
2023-05-10T12:25:11.914Z,0.70
2023-05-10T12:27:13.871Z,0.40
2023-05-10T12:29:19.999Z,0.70
2023-05-10T12:31:21.829Z,0.70
2023-05-10T12:33:23.828Z,0.50
2023-05-10T12:35:26.319Z,0.65
2023-05-10T12:37:29.404Z,1.05
2023-05-10T12:39:47.355Z,0.40
2023-05-10T12:41:49.057Z,0.50
2023-05-10T12:43:50.823Z,0.50
2023-05-10T12:45:52.896Z,0.50
2023-05-10T12:47:54.669Z,0.43
2023-05-10T12:49:59.062Z,0.40
2023-05-10T12:52:02.870Z,0.50
2023-05-10T12:54:04.875Z,0.60
2023-05-10T12:56:07.097Z,0.50
2023-05-10T12:58:08.893Z,0.50
2023-05-10T13:00:11.287Z,0.70
2023-05-10T13:02:13.044Z,0.70
2023-05-10T13:04:14.873Z,0.45
2023-05-10T13:06:16.594Z,0.40
2023-05-10T13:08:18.318Z,0.50
2023-05-10T13:10:20.217Z,2.35
2023-05-10T13:12:21.987Z,0.50
2023-05-10T13:14:23.858Z,0.32
2023-05-10T13:16:25.745Z,0.40
2023-05-10T13:18:28.945Z,0.50
2023-05-10T13:20:30.841Z,0.38
2023-05-10T13:22:40.338Z,0.50
2023-05-10T13:24:42.317Z,0.68
2023-05-10T13:26:44.760Z,0.50
2023-05-10T13:28:47.083Z,0.70
2023-05-10T13:30:48.850Z,0.50
2023-05-10T13:32:51.340Z,0.40
2023-05-10T13:34:53.194Z,0.50
2023-05-10T13:36:56.828Z,0.40
2023-05-10T13:38:58.551Z,0.50
2023-05-10T13:41:00.262Z,0.40
2023-05-10T13:43:01.960Z,0.50
2023-05-10T13:45:04.110Z,0.40
2023-05-10T13:47:06.759Z,0.40
2023-05-10T13:49:09.521Z,0.30
2023-05-10T13:51:11.452Z,0.45
2023-05-10T13:53:13.654Z,0.50
2023-05-10T13:55:15.829Z,0.52
2023-05-10T13:57:17.952Z,0.30
2023-05-10T13:59:19.666Z,0.40
2023-05-10T14:01:21.492Z,0.40
2023-05-10T14:03:23.502Z,0.50
2023-05-10T14:05:26.473Z,0.40
2023-05-10T14:07:28.470Z,0.40
2023-05-10T14:09:30.271Z,0.35
2023-05-10T14:11:31.987Z,0.50
2023-05-10T14:13:34.023Z,0.47
2023-05-10T14:15:35.784Z,0.40
2023-05-10T14:17:37.513Z,0.30
2023-05-10T14:19:40.096Z,0.68
2023-05-10T14:21:46.683Z,0.40
2023-05-10T14:23:48.426Z,0.50
2023-05-10T14:25:50.090Z,0.40
2023-05-10T14:27:52.087Z,0.40
2023-05-10T14:29:54.508Z,0.32
2023-05-10T14:31:56.533Z,0.35
2023-05-10T14:33:58.878Z,0.40
2023-05-10T14:36:01.144Z,0.50
2023-05-10T14:38:06.469Z,0.40
2023-05-10T14:40:08.915Z,0.50
2023-05-10T14:42:10.659Z,0.52
2023-05-10T14:44:12.715Z,0.40
2023-05-10T14:46:14.440Z,0.40
2023-05-10T14:48:18.410Z,0.43
2023-05-10T14:50:35.321Z,0.40
2023-05-10T14:52:37.984Z,0.50
2023-05-10T14:54:39.836Z,0.43
2023-05-10T14:56:43.169Z,0.80
2023-05-10T14:58:44.904Z,0.52
2023-05-10T15:00:47.218Z,0.40
2023-05-10T15:02:49.724Z,0.40
2023-05-10T15:04:52.190Z,0.52
2023-05-10T15:07:00.280Z,0.40
2023-05-10T15:09:03.348Z,0.30
2023-05-10T15:11:05.174Z,0.40
2023-05-10T15:13:06.931Z,0.55
2023-05-10T15:15:09.071Z,0.50
2023-05-10T15:17:11.219Z,0.30
2023-05-10T15:19:12.931Z,0.60
2023-05-10T15:21:14.638Z,0.50
2023-05-10T15:23:16.486Z,0.30
2023-05-10T15:25:18.562Z,0.45
2023-05-10T15:27:20.536Z,0.30
2023-05-10T15:29:22.408Z,0.40
2023-05-10T15:31:24.112Z,0.38
2023-05-10T15:33:26.051Z,0.32
2023-05-10T15:35:28.234Z,0.50
2023-05-10T15:37:30.010Z,1.23
2023-05-10T15:39:31.949Z,0.40
2023-05-10T15:41:33.803Z,0.40
2023-05-10T15:43:35.936Z,0.43
2023-05-10T15:45:37.824Z,0.60
2023-05-10T15:47:40.638Z,0.40
2023-05-10T15:49:42.416Z,0.60
2023-05-10T15:51:44.205Z,0.50
2023-05-10T15:54:00.446Z,0.50
2023-05-10T15:56:11.762Z,0.60
2023-05-10T15:58:13.989Z,0.52
2023-05-10T16:00:16.321Z,0.30
2023-05-10T16:02:19.438Z,0.40
2023-05-10T16:04:21.873Z,0.40
2023-05-10T16:06:23.597Z,0.73
2023-05-10T16:08:25.748Z,0.50
2023-05-10T16:10:28.286Z,0.43
2023-05-10T16:12:31.527Z,0.50
2023-05-10T16:14:33.359Z,0.47
2023-05-10T16:16:35.605Z,0.50
2023-05-10T16:18:37.614Z,0.20
2023-05-10T16:20:39.357Z,0.40
2023-05-10T16:22:41.089Z,0.40
2023-05-10T16:24:42.794Z,0.50
2023-05-10T16:26:44.933Z,0.20
2023-05-10T16:28:47.088Z,0.40
2023-05-10T16:30:49.141Z,0.32
2023-05-10T16:32:51.055Z,0.45
2023-05-10T16:34:53.576Z,0.25
2023-05-10T16:36:55.495Z,0.38
2023-05-10T16:38:57.275Z,0.30
2023-05-10T16:40:59.025Z,0.43
2023-05-10T16:43:00.922Z,0.20
2023-05-10T16:45:07.663Z,0.30
2023-05-10T16:47:09.481Z,0.30
2023-05-10T16:49:12.432Z,0.50
2023-05-10T16:51:14.177Z,0.32
2023-05-10T16:53:16.117Z,0.50
2023-05-10T16:55:18.068Z,0.40
2023-05-10T16:57:19.999Z,0.60
2023-05-10T16:59:21.692Z,0.60
2023-05-10T17:01:25.787Z,0.40
2023-05-10T17:03:28.774Z,0.30
2023-05-10T17:05:30.602Z,0.60
2023-05-10T17:07:32.277Z,0.50
2023-05-10T17:09:34.836Z,0.65
2023-05-10T17:11:36.595Z,0.98
2023-05-10T17:13:38.955Z,1.77
2023-05-10T17:15:41.048Z,0.70
2023-05-10T17:17:42.972Z,0.70
2023-05-10T17:19:47.826Z,0.90
2023-05-10T17:21:49.581Z,0.75
2023-05-10T17:23:51.329Z,0.60
2023-05-10T17:25:53.099Z,0.63
2023-05-10T17:27:54.828Z,0.57
2023-05-10T17:29:57.614Z,0.50
2023-05-10T17:31:59.703Z,0.50
2023-05-10T17:34:04.644Z,0.93
2023-05-10T17:36:07.641Z,0.70
2023-05-10T17:38:09.361Z,0.50
2023-05-10T17:40:12.835Z,0.40
2023-05-10T17:42:17.572Z,0.50
2023-05-10T17:44:19.386Z,0.50
2023-05-10T17:46:21.278Z,0.50
2023-05-10T17:48:23.221Z,0.60
2023-05-10T17:50:24.937Z,0.80
2023-05-10T17:52:27.017Z,0.60
2023-05-10T17:54:28.694Z,0.52
2023-05-10T17:56:30.554Z,0.70
2023-05-10T17:58:32.347Z,0.73
2023-05-10T18:00:36.033Z,0.70
2023-05-10T18:02:38.104Z,0.70
2023-05-10T18:04:41.013Z,0.38
2023-05-10T18:06:42.950Z,0.50
2023-05-10T18:08:45.404Z,0.60
2023-05-10T18:10:47.084Z,0.40
2023-05-10T18:12:50.619Z,0.60
2023-05-10T18:14:52.339Z,0.60
2023-05-10T18:16:54.971Z,0.30
2023-05-10T18:18:58.198Z,0.55
2023-05-10T18:21:00.944Z,0.50
2023-05-10T18:23:03.278Z,0.40
2023-05-10T18:25:05.390Z,0.40
2023-05-10T18:27:08.949Z,0.30
2023-05-10T18:29:11.137Z,0.40
2023-05-10T18:31:12.924Z,0.40
2023-05-10T18:33:15.047Z,0.60
2023-05-10T18:35:16.785Z,0.50
2023-05-10T18:37:18.545Z,0.80
2023-05-10T18:39:20.306Z,0.50
2023-05-10T18:41:22.501Z,0.50
2023-05-10T18:43:24.272Z,0.50
2023-05-10T18:45:25.990Z,0.65
2023-05-10T18:47:27.822Z,0.50
2023-05-10T18:49:29.768Z,0.47
2023-05-10T18:51:31.812Z,0.40
2023-05-10T18:53:33.895Z,0.50
2023-05-10T18:55:35.667Z,0.30
2023-05-10T18:57:41.697Z,0.40
2023-05-10T18:59:43.598Z,0.75
2023-05-10T19:01:45.423Z,0.40
2023-05-10T19:03:47.203Z,0.60
2023-05-10T19:05:49.143Z,0.70
2023-05-10T19:07:50.858Z,0.60
2023-05-10T19:09:52.615Z,0.63
2023-05-10T19:11:54.424Z,0.50
2023-05-10T19:13:56.151Z,0.57
2023-05-10T19:16:06.135Z,0.68
2023-05-10T19:18:09.692Z,0.70
2023-05-10T19:20:11.826Z,0.60
2023-05-10T19:22:14.057Z,0.50
2023-05-10T19:24:15.912Z,0.60
2023-05-10T19:26:18.058Z,0.82
2023-05-10T19:28:19.848Z,0.70
2023-05-10T19:30:21.626Z,0.50
2023-05-10T19:32:24.596Z,0.80
2023-05-10T19:34:27.352Z,0.63
2023-05-10T19:36:29.695Z,0.77
2023-05-10T19:38:31.615Z,0.70
2023-05-10T19:40:33.342Z,0.50
2023-05-10T19:42:35.102Z,0.60
2023-05-10T19:44:36.785Z,0.40
2023-05-10T19:46:38.496Z,0.50
2023-05-10T19:48:40.310Z,0.60
2023-05-10T19:50:41.970Z,0.60
2023-05-10T19:52:44.906Z,0.63
2023-05-10T19:54:46.624Z,0.45
2023-05-10T19:56:48.407Z,0.50
2023-05-10T19:58:50.130Z,0.50
2023-05-10T20:00:51.908Z,0.50
2023-05-10T20:02:53.875Z,0.50
2023-05-10T20:04:55.669Z,0.40
2023-05-10T20:06:57.354Z,0.88
2023-05-10T20:08:59.026Z,0.60
2023-05-10T20:11:02.795Z,0.52
2023-05-10T20:13:04.566Z,0.57
2023-05-10T20:15:07.778Z,0.50
2023-05-10T20:17:09.469Z,0.50
2023-05-10T20:19:12.380Z,0.70
2023-05-10T20:21:14.226Z,0.65
2023-05-10T20:23:16.033Z,0.73
2023-05-10T20:25:18.994Z,0.63
2023-05-10T20:27:21.309Z,0.70
2023-05-10T20:29:23.139Z,0.50
2023-05-10T20:31:25.066Z,0.60
2023-05-10T20:33:26.987Z,0.60
2023-05-10T20:35:28.675Z,0.60
2023-05-10T20:37:31.117Z,0.75
2023-05-10T20:39:32.930Z,0.50
2023-05-10T20:41:34.695Z,0.60
2023-05-10T20:43:36.755Z,0.73
2023-05-10T20:45:38.508Z,0.57
2023-05-10T20:47:40.211Z,0.60
2023-05-10T20:49:41.939Z,0.68
2023-05-10T20:51:43.645Z,0.88
2023-05-10T20:53:45.661Z,0.90
2023-05-10T20:55:47.361Z,0.80
2023-05-10T20:57:49.103Z,0.80
2023-05-10T20:59:51.179Z,0.80
2023-05-10T21:01:52.984Z,0.65
2023-05-10T21:03:54.740Z,1.25
2023-05-10T21:05:56.475Z,1.00
2023-05-10T21:08:00.823Z,0.70
2023-05-10T21:10:03.237Z,1.10
2023-05-10T21:12:08.644Z,1.00
2023-05-10T21:14:11.432Z,1.08
2023-05-10T21:16:13.257Z,1.75
2023-05-10T21:18:15.089Z,2.35
2023-05-10T21:20:17.240Z,1.83
2023-05-10T21:22:19.121Z,1.45
2023-05-10T21:24:20.824Z,1.63
2023-05-10T21:26:23.378Z,1.35
2023-05-10T21:28:25.110Z,0.98
2023-05-10T21:30:27.228Z,0.95
2023-05-10T21:32:29.324Z,1.20
2023-05-10T21:34:31.224Z,1.20
2023-05-10T21:36:32.888Z,0.90
2023-05-10T21:38:34.984Z,1.00
2023-05-10T21:40:36.776Z,0.70
2023-05-10T21:42:38.519Z,0.85
2023-05-10T21:44:40.275Z,0.85
2023-05-10T21:46:42.002Z,0.80
2023-05-10T21:48:43.728Z,0.63
2023-05-10T21:50:47.630Z,0.68
2023-05-10T21:52:49.396Z,0.60
2023-05-10T21:54:51.155Z,0.80
2023-05-10T21:56:53.341Z,1.00
2023-05-10T21:58:55.118Z,0.80
2023-05-10T22:00:57.311Z,0.77
2023-05-10T22:02:59.238Z,0.77
2023-05-10T22:05:02.264Z,1.23
2023-05-10T22:07:09.456Z,0.80
2023-05-10T22:09:11.269Z,0.90
2023-05-10T22:11:13.024Z,0.98
2023-05-10T22:13:14.714Z,1.08
2023-05-10T22:15:16.462Z,0.70
2023-05-10T22:17:18.291Z,1.05
2023-05-10T22:19:19.976Z,0.77
2023-05-10T22:21:21.839Z,0.60
2023-05-10T22:23:23.621Z,1.05
2023-05-10T22:25:25.446Z,0.90
2023-05-10T22:27:27.250Z,1.20
2023-05-10T22:29:30.464Z,0.85
2023-05-10T22:31:32.544Z,0.90
2023-05-10T22:33:34.260Z,1.10
2023-05-10T22:35:36.128Z,0.95
2023-05-10T22:37:37.887Z,1.08
2023-05-10T22:39:39.681Z,0.73
2023-05-10T22:41:41.376Z,1.10
2023-05-10T22:43:43.093Z,1.00
2023-05-10T22:45:44.925Z,0.98
2023-05-10T22:47:47.340Z,2.97
2023-05-10T22:49:49.106Z,5.55
2023-05-10T22:51:50.801Z,8.27
2023-05-10T22:53:52.658Z,6.50
2023-05-10T22:55:54.385Z,6.55
2023-05-10T22:57:56.289Z,4.20
2023-05-10T22:59:58.097Z,3.13
2023-05-10T23:02:00.027Z,1.88
2023-05-10T23:04:02.052Z,1.52
2023-05-10T23:06:04.070Z,1.48
2023-05-10T23:08:05.980Z,1.83
2023-05-10T23:10:08.324Z,1.25
2023-05-10T23:12:10.101Z,0.90
2023-05-10T23:14:12.059Z,1.02
2023-05-10T23:16:13.805Z,1.20
2023-05-10T23:18:15.774Z,1.20
2023-05-10T23:20:19.238Z,1.02
2023-05-10T23:22:21.242Z,0.70
2023-05-10T23:24:23.028Z,1.02
2023-05-10T23:26:24.800Z,0.73
2023-05-10T23:28:26.614Z,0.80
2023-05-10T23:30:28.395Z,0.98
2023-05-10T23:32:30.231Z,1.20
2023-05-10T23:34:32.356Z,0.90
2023-05-10T23:36:34.091Z,0.93
2023-05-10T23:38:35.882Z,1.00
2023-05-10T23:40:37.560Z,1.00
2023-05-10T23:42:39.551Z,0.88
2023-05-10T23:44:41.272Z,0.73
2023-05-10T23:46:43.151Z,1.02
2023-05-10T23:48:44.918Z,1.20
2023-05-10T23:50:46.792Z,1.35
2023-05-10T23:52:48.490Z,2.72
2023-05-10T23:54:50.240Z,4.28
2023-05-10T23:56:52.240Z,7.25
2023-05-10T23:58:53.940Z,5.60
